Time;durP1;ratioP1;P1;durP2;ratioP2;P2;SDS_P1;SDS_P2;PMS_P1;PMS_P2;Temp;Humidity;BMP_temperature;BMP_pressure;BME280_temperature;BME280_humidity;BME280_pressure;Samples;Min_cycle;Max_cycle;Signal;HPM_P1;HPM_P2
2023/08/06 00:01:31;;;;;;;5.15;3.80;;;;;;;14.83;100.00;100272.09;5029965;28;20028;-80
2023/08/06 00:03:56;;;;;;;5.45;3.15;;;;;;;14.82;100.00;100270.44;5030352;28;20336;-80
2023/08/06 00:06:22;;;;;;;7.55;3.45;;;;;;;14.81;100.00;100263.50;5029334;28;20343;-81
2023/08/06 00:08:47;;;;;;;5.43;3.13;;;;;;;14.81;100.00;100263.50;5029914;28;20025;-81
2023/08/06 00:11:13;;;;;;;4.82;3.30;;;;;;;14.83;100.00;100268.63;5030483;28;20107;-80
2023/08/06 00:13:38;;;;;;;3.95;3.25;;;;;;;14.84;100.00;100268.47;5019966;28;20022;-81
2023/08/06 00:16:11;;;;;;;4.80;3.58;;;;;;;14.86;100.00;100265.66;5030017;28;20034;-81
2023/08/06 00:18:37;;;;;;;5.60;3.13;;;;;;;14.84;100.00;100259.69;5029084;28;20025;-80
2023/08/06 00:21:02;;;;;;;4.45;3.58;;;;;;;14.84;100.00;100263.19;5027552;28;20033;-81
2023/08/06 00:23:27;;;;;;;5.97;3.70;;;;;;;14.83;100.00;100253.56;5029795;28;20026;-80
2023/08/06 00:25:53;;;;;;;5.70;3.50;;;;;;;14.83;100.00;100256.22;5030341;28;20033;-81
2023/08/06 00:28:18;;;;;;;6.72;3.47;;;;;;;14.84;100.00;100257.88;5047009;28;20469;-81
2023/08/06 00:30:43;;;;;;;4.72;3.67;;;;;;;14.83;100.00;100250.91;5026720;28;20029;-81
2023/08/06 00:33:09;;;;;;;5.03;3.55;;;;;;;14.80;100.00;100256.50;5030573;28;20545;-81
2023/08/06 00:35:35;;;;;;;5.30;3.50;;;;;;;14.82;100.00;100254.56;5029889;28;20500;-81
2023/08/06 00:38:00;;;;;;;5.38;3.13;;;;;;;14.81;100.00;100255.53;5030319;28;20120;-81
2023/08/06 00:40:28;;;;;;;4.20;3.10;;;;;;;14.81;100.00;100254.69;5030252;28;20521;-81
2023/08/06 00:42:53;;;;;;;4.45;3.28;;;;;;;14.79;100.00;100260.13;5022750;28;20029;-81
2023/08/06 00:45:19;;;;;;;5.13;3.42;;;;;;;14.80;100.00;100253.84;5038872;28;20111;-81
2023/08/06 00:47:45;;;;;;;5.55;3.70;;;;;;;14.78;100.00;100247.88;5044041;28;20108;-81
2023/08/06 00:50:11;;;;;;;4.38;3.58;;;;;;;14.77;100.00;100251.50;5035513;28;20021;-81
2023/08/06 00:52:37;;;;;;;6.32;3.30;;;;;;;14.77;100.00;100246.22;5044161;28;20044;-81
2023/08/06 00:55:03;;;;;;;5.60;3.30;;;;;;;14.78;100.00;100250.53;5066852;28;20029;-81
2023/08/06 00:57:28;;;;;;;7.65;3.60;;;;;;;14.77;100.00;100246.22;5026072;28;20048;-81
2023/08/06 00:59:54;;;;;;;6.50;3.28;;;;;;;14.76;100.00;100241.91;5017113;28;20018;-81
2023/08/06 01:02:19;;;;;;;7.10;3.50;;;;;;;14.74;100.00;100246.53;5036163;28;20035;-81
2023/08/06 01:04:45;;;;;;;4.72;3.08;;;;;;;14.73;100.00;100240.41;5026895;28;20481;-80
2023/08/06 01:07:13;;;;;;;4.72;3.25;;;;;;;14.72;100.00;100245.84;5044128;28;20037;-81
2023/08/06 01:09:54;;;;;;;6.50;3.38;;;;;;;14.71;100.00;100241.53;5046220;28;20392;-81
2023/08/06 01:12:34;;;;;;;4.93;3.15;;;;;;;14.75;100.00;100240.25;5044729;28;20033;-80
2023/08/06 01:15:17;;;;;;;6.00;3.40;;;;;;;14.69;100.00;100244.34;5043687;28;20033;-80
2023/08/06 01:17:44;;;;;;;5.95;3.28;;;;;;;14.67;100.00;100240.19;5049315;28;20021;-80
2023/08/06 01:20:10;;;;;;;3.92;3.00;;;;;;;14.66;100.00;100234.06;5037456;28;20082;-80
2023/08/06 01:22:35;;;;;;;5.95;3.50;;;;;;;14.69;100.00;100232.91;5043432;28;20032;-80
2023/08/06 01:25:01;;;;;;;5.78;3.30;;;;;;;14.69;100.00;100235.56;5046162;28;20028;-80
2023/08/06 01:27:46;;;;;;;6.05;3.22;;;;;;;14.72;100.00;100245.84;5031247;28;20026;-80
2023/08/06 01:30:20;;;;;;;5.00;3.33;;;;;;;14.69;100.00;100247.00;5031632;28;20442;-80
2023/08/06 01:32:49;;;;;;;7.20;3.30;;;;;;;14.70;100.00;100239.88;5047772;28;20037;-80
2023/08/06 01:35:17;;;;;;;7.00;3.33;;;;;;;14.66;100.00;100242.00;5041578;28;20029;-80
2023/08/06 01:37:43;;;;;;;8.82;3.55;;;;;;;14.66;100.00;100227.94;5047167;28;20032;-80
2023/08/06 01:40:13;;;;;;;6.90;3.30;;;;;;;14.65;100.00;100232.41;5034549;28;20048;-80
2023/08/06 01:42:38;;;;;;;4.93;2.70;;;;;;;14.64;100.00;100240.50;5046556;28;20450;-80
2023/08/06 01:45:05;;;;;;;6.68;3.50;;;;;;;14.64;100.00;100237.84;5048142;28;20128;-79
2023/08/06 01:47:30;;;;;;;5.30;3.42;;;;;;;14.63;100.00;100230.91;5048528;28;20033;-79
2023/08/06 01:49:56;;;;;;;8.77;3.33;;;;;;;14.60;100.00;100228.56;5050654;28;20367;-79
2023/08/06 01:52:21;;;;;;;4.90;3.22;;;;;;;14.57;100.00;100234.16;5032584;28;20033;-79
2023/08/06 01:54:46;;;;;;;6.25;3.60;;;;;;;14.62;100.00;100226.59;5048878;28;20058;-79
2023/08/06 01:57:12;;;;;;;5.13;3.00;;;;;;;14.59;100.00;100232.19;5030870;28;20043;-79
2023/08/06 01:59:37;;;;;;;6.65;3.28;;;;;;;14.57;100.00;100234.16;5043746;28;20047;-79
2023/08/06 02:02:03;;;;;;;7.68;3.47;;;;;;;14.58;100.00;100233.19;5047160;28;20036;-80
2023/08/06 02:04:28;;;;;;;5.88;2.95;;;;;;;14.56;100.00;100221.91;5047405;28;20471;-80
2023/08/06 02:06:53;;;;;;;8.50;3.20;;;;;;;14.55;100.00;100233.50;5037350;28;20393;-79
2023/08/06 02:09:19;;;;;;;5.53;3.10;;;;;;;14.55;100.00;100236.13;5024557;28;20105;-79
2023/08/06 02:11:44;;;;;;;4.50;3.15;;;;;;;14.51;100.00;100234.78;5028765;28;20082;-79
2023/08/06 02:14:10;;;;;;;6.75;3.22;;;;;;;14.50;100.00;100238.41;5031672;28;20014;-79
2023/08/06 02:16:35;;;;;;;6.18;3.00;;;;;;;14.46;100.00;100239.72;5032845;28;20531;-79
2023/08/06 02:19:01;;;;;;;5.35;3.28;;;;;;;14.43;100.00;100237.38;5032205;28;20833;-80
2023/08/06 02:21:26;;;;;;;4.57;3.28;;;;;;;14.45;100.00;100238.88;5031580;28;20051;-79
2023/08/06 02:23:51;;;;;;;5.72;3.13;;;;;;;14.44;100.00;100236.41;5063911;28;20044;-80
2023/08/06 02:26:17;;;;;;;6.28;3.55;;;;;;;14.44;100.00;100236.41;5032733;28;20025;-79
2023/08/06 02:28:42;;;;;;;6.63;3.60;;;;;;;14.45;100.00;100240.69;5034494;28;20033;-80
2023/08/06 02:31:11;;;;;;;5.55;3.67;;;;;;;14.45;100.00;100241.53;5052044;28;20035;-81
2023/08/06 02:33:36;;;;;;;6.45;3.55;;;;;;;14.47;100.00;100241.38;5052127;28;20485;-80
2023/08/06 02:36:04;;;;;;;5.07;3.70;;;;;;;14.45;100.00;100240.69;5051256;28;20025;-81
2023/08/06 02:38:29;;;;;;;6.88;4.07;;;;;;;14.44;100.00;100236.41;5051840;28;20820;-80
2023/08/06 02:40:55;;;;;;;6.47;3.72;;;;;;;14.45;100.00;100232.75;5051132;28;20025;-81
2023/08/06 02:43:20;;;;;;;5.25;3.80;;;;;;;14.45;100.00;100238.06;5035498;28;20034;-81
2023/08/06 02:45:45;;;;;;;7.45;3.83;;;;;;;14.44;100.00;100234.56;5031530;28;20409;-80
2023/08/06 02:48:11;;;;;;;5.40;3.97;;;;;;;14.41;100.00;100230.38;5031095;28;20041;-79
2023/08/06 02:50:41;;;;;;;8.18;4.43;;;;;;;14.45;100.00;100235.41;5032357;28;20029;-79
2023/08/06 02:53:08;;;;;;;6.20;4.20;;;;;;;14.42;100.00;100231.22;5031512;28;20025;-79
2023/08/06 02:55:34;;;;;;;4.32;3.60;;;;;;;14.39;100.00;100223.56;5050910;28;20032;-79
2023/08/06 02:58:02;;;;;;;5.35;3.92;;;;;;;14.40;100.00;100228.69;5052368;28;20082;-80
2023/08/06 03:00:28;;;;;;;5.47;4.00;;;;;;;14.41;100.00;100222.44;5039766;28;20072;-80
2023/08/06 03:02:53;;;;;;;6.38;4.05;;;;;;;14.42;100.00;100231.22;5021026;28;20103;-80
2023/08/06 03:05:19;;;;;;;6.22;3.88;;;;;;;14.45;100.00;100219.53;5052097;28;20017;-80
2023/08/06 03:07:44;;;;;;;5.07;4.00;;;;;;;14.43;100.00;100224.13;5051453;28;20024;-80
2023/08/06 03:10:09;;;;;;;8.60;3.92;;;;;;;14.43;100.00;100227.63;5044551;28;20508;-80
2023/08/06 03:12:35;;;;;;;5.05;3.50;;;;;;;14.44;100.00;100228.44;5030792;28;20481;-80
2023/08/06 03:15:00;;;;;;;6.82;4.07;;;;;;;14.46;100.00;100226.47;5029926;28;20843;-80
2023/08/06 03:17:26;;;;;;;5.45;3.80;;;;;;;14.46;100.00;100226.47;5027107;28;20926;-80
2023/08/06 03:19:51;;;;;;;6.15;3.70;;;;;;;14.45;100.00;100228.28;5036498;28;20104;-80
2023/08/06 03:22:16;;;;;;;9.98;3.97;;;;;;;14.49;100.00;100227.00;5035405;28;20033;-80
2023/08/06 03:24:42;;;;;;;5.65;3.78;;;;;;;14.53;100.00;100231.00;5042128;28;20055;-80
2023/08/06 03:27:10;;;;;;;8.35;3.60;;;;;;;14.51;100.00;100229.50;5031073;28;20517;-80
2023/08/06 03:29:35;;;;;;;8.00;3.92;;;;;;;14.54;100.00;100235.31;5046990;28;20056;-80
2023/08/06 03:32:01;;;;;;;6.38;4.20;;;;;;;14.57;100.00;100234.16;5031513;28;20056;-80
2023/08/06 03:34:26;;;;;;;11.15;4.32;;;;;;;14.55;100.00;100228.19;5027315;28;20025;-80
2023/08/06 03:36:52;;;;;;;8.90;4.00;;;;;;;14.60;100.00;100233.84;5030432;28;20064;-80
2023/08/06 03:39:17;;;;;;;6.70;4.45;;;;;;;14.63;100.00;100238.84;5029688;28;20021;-80
2023/08/06 03:41:42;;;;;;;5.95;4.20;;;;;;;14.64;100.00;100235.22;5030326;28;20029;-80
2023/08/06 03:44:08;;;;;;;6.65;4.65;;;;;;;14.63;100.00;100239.69;5046019;28;20461;-79
2023/08/06 03:46:33;;;;;;;9.63;4.65;;;;;;;14.66;100.00;100235.88;5050749;28;20025;-80
2023/08/06 03:49:02;;;;;;;7.53;4.50;;;;;;;14.63;100.00;100234.38;5049356;28;20060;-80
2023/08/06 03:51:27;;;;;;;8.10;4.60;;;;;;;14.61;100.00;100236.34;5025380;28;20498;-80
2023/08/06 03:53:53;;;;;;;7.50;4.53;;;;;;;14.63;100.00;100241.50;5020713;28;20559;-80
2023/08/06 03:56:18;;;;;;;6.90;4.63;;;;;;;14.61;100.00;100240.81;5050115;28;20021;-81
2023/08/06 03:58:43;;;;;;;5.82;4.30;;;;;;;14.62;100.00;100237.19;5049326;28;20025;-81
2023/08/06 04:01:09;;;;;;;8.00;4.03;;;;;;;14.56;100.00;100243.09;5050127;28;20028;-81
2023/08/06 04:03:34;;;;;;;7.95;4.45;;;;;;;14.56;100.00;100243.09;5048937;28;20052;-81
2023/08/06 04:06:01;;;;;;;9.90;4.43;;;;;;;14.55;100.00;100241.44;5049771;28;20441;-81
2023/08/06 04:08:26;;;;;;;5.30;3.72;;;;;;;14.51;100.00;100242.72;5032951;28;20064;-81
2023/08/06 04:10:52;;;;;;;6.53;4.20;;;;;;;14.50;100.00;100243.72;5030537;28;20053;-81
2023/08/06 04:13:18;;;;;;;7.03;4.50;;;;;;;14.53;100.00;100243.41;5028848;28;20456;-81
2023/08/06 04:15:43;;;;;;;6.47;4.20;;;;;;;14.53;100.00;100248.69;5030584;28;20028;-81
2023/08/06 04:18:08;;;;;;;6.32;3.88;;;;;;;14.55;100.00;100246.72;5033597;28;20105;-80
2023/08/06 04:20:34;;;;;;;6.55;4.25;;;;;;;14.57;100.00;100250.88;5046465;28;20477;-81
2023/08/06 04:23:05;;;;;;;6.32;4.30;;;;;;;14.57;100.00;100252.69;5049088;28;20500;-81
2023/08/06 04:25:30;;;;;;;9.52;4.70;;;;;;;14.53;100.00;100246.88;5013880;28;20034;-81
2023/08/06 04:27:56;;;;;;;9.25;4.65;;;;;;;14.50;100.00;100251.66;5033212;28;20032;-81
2023/08/06 04:30:21;;;;;;;6.57;5.00;;;;;;;14.48;100.00;100256.28;5050320;28;20029;-81
2023/08/06 04:32:47;;;;;;;8.98;5.00;;;;;;;14.49;100.00;100257.94;5048705;28;20020;-81
2023/08/06 04:35:12;;;;;;;6.60;4.70;;;;;;;14.47;100.00;100257.25;5047846;28;20085;-81
2023/08/06 04:37:40;;;;;;;8.48;4.78;;;;;;;14.46;100.00;100258.25;5049974;28;20044;-81
2023/08/06 04:40:06;;;;;;;5.57;4.60;;;;;;;14.51;100.00;100261.25;5050023;28;20021;-81
2023/08/06 04:42:32;;;;;;;5.88;4.80;;;;;;;14.54;100.00;100268.91;5034926;28;20033;-81
2023/08/06 04:44:57;;;;;;;8.57;5.30;;;;;;;14.54;100.00;100268.91;5026179;28;20053;-81
2023/08/06 04:47:22;;;;;;;8.18;5.60;;;;;;;14.58;100.00;100262.31;5029506;28;20033;-81
2023/08/06 04:49:48;;;;;;;7.22;5.15;;;;;;;14.60;100.00;100270.91;5031051;28;20056;-81
2023/08/06 04:52:13;;;;;;;7.18;4.90;;;;;;;14.64;100.00;100261.69;5044413;28;20033;-80
2023/08/06 04:54:38;;;;;;;9.93;5.45;;;;;;;14.65;100.00;100268.66;5045357;28;20418;-80
2023/08/06 04:57:04;;;;;;;6.68;5.30;;;;;;;14.64;100.00;100274.94;5042916;28;20029;-81
2023/08/06 04:59:29;;;;;;;7.90;5.53;;;;;;;14.63;100.00;100271.44;5043605;28;20032;-80
2023/08/06 05:01:55;;;;;;;6.50;5.35;;;;;;;14.69;100.00;100277.94;5023247;28;20029;-80
2023/08/06 05:04:20;;;;;;;7.45;5.55;;;;;;;14.69;100.00;100277.94;5029225;28;20018;-80
2023/08/06 05:06:46;;;;;;;10.63;6.32;;;;;;;14.67;100.00;100277.25;5029405;28;20119;-80
2023/08/06 05:09:11;;;;;;;8.27;5.63;;;;;;;14.75;100.00;100279.97;5028785;28;20044;-80
2023/08/06 05:11:36;;;;;;;7.45;5.75;;;;;;;14.78;100.00;100276.19;5029601;28;20029;-80
2023/08/06 05:14:02;;;;;;;8.23;6.20;;;;;;;14.79;100.00;100283.97;5027983;28;20136;-79
2023/08/06 05:16:27;;;;;;;8.38;5.78;;;;;;;14.85;100.00;100283.38;5029442;28;20030;-80
2023/08/06 05:18:53;;;;;;;6.68;5.63;;;;;;;14.90;100.00;100291.69;5024746;28;20028;-80
2023/08/06 05:21:18;;;;;;;10.38;5.90;;;;;;;14.93;100.00;100299.31;5049983;28;20036;-80
2023/08/06 05:23:43;;;;;;;6.97;5.40;;;;;;;14.97;100.00;100299.84;5047813;28;20099;-80
2023/08/06 05:26:09;;;;;;;7.78;6.15;;;;;;;14.98;100.00;100302.34;5049783;28;20544;-80
2023/08/06 05:28:35;;;;;;;7.88;5.50;;;;;;;15.04;100.00;100296.41;5040874;28;20025;-80
2023/08/06 05:31:06;;;;;;;8.15;6.03;;;;;;;15.10;100.00;100307.38;5028868;28;20063;-80
2023/08/06 05:33:32;;;;;;;6.70;5.53;;;;;;;15.14;100.00;100298.94;5041016;28;20079;-81
2023/08/06 05:35:57;;;;;;;7.45;5.93;;;;;;;15.18;100.00;100307.41;5029121;28;20504;-80
2023/08/06 05:38:23;;;;;;;7.85;6.03;;;;;;;15.25;100.00;100309.31;5028913;28;20021;-80
2023/08/06 05:40:48;;;;;;;6.82;5.85;;;;;;;15.25;100.00;100319.91;5029558;28;20156;-81
2023/08/06 05:43:14;;;;;;;8.60;6.53;;;;;;;15.27;100.00;100317.09;5029479;28;20036;-81
2023/08/06 05:45:43;;;;;;;7.20;6.18;;;;;;;15.31;100.00;100323.75;5042491;28;20044;-81
2023/08/06 05:48:09;;;;;;;6.90;6.20;;;;;;;15.36;100.00;100332.06;5040621;28;20034;-81
2023/08/06 05:50:34;;;;;;;7.13;5.28;;;;;;;15.41;100.00;100335.06;5027007;28;20482;-81
2023/08/06 05:52:59;;;;;;;8.30;5.50;;;;;;;15.40;100.00;100337.88;5023492;28;20112;-81
2023/08/06 05:55:25;;;;;;;7.68;5.78;;;;;;;15.44;100.00;100344.53;5036607;28;20030;-81
2023/08/06 05:57:52;;;;;;;7.57;5.78;;;;;;;15.43;100.00;100338.38;5028128;28;20385;-81
2023/08/06 06:00:18;;;;;;;9.95;6.28;;;;;;;15.43;100.00;100348.16;5058873;28;20041;-81
2023/08/06 06:02:43;;;;;;;7.22;6.15;;;;;;;15.42;100.00;100343.84;5060785;28;20052;-81
2023/08/06 06:05:09;;;;;;;7.72;6.43;;;;;;;15.36;100.00;100354.09;5059472;28;20033;-80
2023/08/06 06:07:34;;;;;;;9.20;6.20;;;;;;;15.42;100.00;100351.81;5021960;28;20057;-81
2023/08/06 06:10:00;;;;;;;7.07;6.03;;;;;;;15.43;100.00;100364.06;5028893;28;20064;-81
2023/08/06 06:12:26;;;;;;;8.65;5.95;;;;;;;15.44;100.00;100361.25;5028228;28;20032;-81
2023/08/06 06:14:51;;;;;;;7.25;5.90;;;;;;;15.53;100.00;100365.63;5030793;28;20048;-81
2023/08/06 06:17:17;;;;;;;7.30;6.50;;;;;;;15.52;100.00;100369.25;5030822;28;20072;-80
2023/08/06 06:19:42;;;;;;;8.98;6.00;;;;;;;15.52;100.00;100376.38;5048621;28;20029;-80
2023/08/06 06:22:08;;;;;;;6.70;4.28;;;;;;;15.46;100.00;100385.81;5052236;28;20464;-80
2023/08/06 06:24:34;;;;;;;8.98;4.65;;;;;;;15.44;100.00;100385.13;5031705;28;20034;-79
2023/08/06 06:27:00;;;;;;;5.90;4.32;;;;;;;15.48;100.00;100389.13;5046234;28;20031;-80
2023/08/06 06:29:25;;;;;;;6.63;4.25;;;;;;;15.46;100.00;100385.81;5051790;28;20102;-81
2023/08/06 06:31:50;;;;;;;6.75;4.57;;;;;;;15.46;100.00;100390.28;5052543;28;20025;-80
2023/08/06 06:34:16;;;;;;;4.78;3.90;;;;;;;15.42;100.00;100395.06;5051920;28;20142;-80
2023/08/06 06:36:41;;;;;;;4.05;3.40;;;;;;;15.41;100.00;100398.69;5045537;28;20021;-82
2023/08/06 06:39:10;;;;;;;2.67;2.20;;;;;;;15.24;100.00;100407.53;5046047;28;20049;-80
2023/08/06 06:41:35;;;;;;;2.03;1.40;;;;;;;15.12;100.00;100419.34;5040639;28;20489;-83
2023/08/06 06:44:01;;;;;;;1.90;0.98;;;;;;;14.99;100.00;100425.88;5038987;28;20065;-81
2023/08/06 06:46:26;;;;;;;1.20;0.90;;;;;;;14.89;100.00;100429.59;5044837;28;20394;-81
2023/08/06 06:48:51;;;;;;;1.00;0.90;;;;;;;14.68;100.00;100433.34;5049278;28;20108;-83
2023/08/06 06:51:17;;;;;;;2.47;1.00;;;;;;;14.55;100.00;100432.06;5052730;28;20362;-80
2023/08/06 06:53:42;;;;;;;2.15;1.10;;;;;;;14.41;100.00;100439.50;5044903;28;20378;-80
2023/08/06 06:56:08;;;;;;;1.50;1.40;;;;;;;14.34;100.00;100445.50;5030496;28;20071;-81
2023/08/06 06:58:33;;;;;;;4.13;1.67;;;;;;;14.24;100.00;100442.91;5025655;28;20389;-80
2023/08/06 07:00:59;;;;;;;2.35;2.10;;;;;;;14.19;100.00;100445.16;5035619;28;20033;-79
2023/08/06 07:03:24;;;;;;;3.33;1.80;;;;;;;14.15;100.00;100445.59;5051236;28;20033;-80
2023/08/06 07:05:50;;;;;;;3.95;2.00;;;;;;;14.03;100.00;100451.09;5030893;28;20071;-81
2023/08/06 07:08:15;;;;;;;2.45;2.10;;;;;;;14.02;100.00;100448.59;5030673;28;20020;-81
2023/08/06 07:10:42;;;;;;;4.00;2.30;;;;;;;13.97;100.00;100458.75;5031559;28;20466;-81
2023/08/06 07:13:08;;;;;;;4.53;2.60;;;;;;;13.96;100.00;100457.91;5031622;28;20029;-80
2023/08/06 07:15:33;;;;;;;4.82;2.60;;;;;;;13.93;100.00;100470.59;5022083;28;20044;-79
2023/08/06 07:17:58;;;;;;;3.05;2.60;;;;;;;13.84;100.00;100474.94;5031122;28;20021;-79
2023/08/06 07:20:24;;;;;;;5.60;3.00;;;;;;;13.83;100.00;100472.44;5031167;28;20022;-80
2023/08/06 07:22:50;;;;;;;6.80;3.33;;;;;;;13.82;100.00;100476.91;5030571;28;20104;-80
2023/08/06 07:25:16;;;;;;;3.35;2.95;;;;;;;13.80;100.00;100479.69;5030298;28;20470;-80
2023/08/06 07:27:44;;;;;;;4.43;3.55;;;;;;;13.77;100.00;100493.19;5032795;28;20112;-79
2023/08/06 07:30:11;;;;;;;7.22;3.40;;;;;;;13.77;100.00;100490.56;5050474;28;20017;-79
2023/08/06 07:32:36;;;;;;;5.65;3.92;;;;;;;13.75;100.00;100495.16;5034055;28;20032;-79
2023/08/06 07:35:02;;;;;;;5.70;4.35;;;;;;;13.76;100.00;100499.47;5031284;28;20053;-79
2023/08/06 07:37:28;;;;;;;7.25;4.57;;;;;;;13.75;100.00;100497.81;5031106;28;20041;-79
2023/08/06 07:39:54;;;;;;;6.72;4.55;;;;;;;13.78;100.00;100502.81;5031545;28;20033;-80
2023/08/06 07:42:20;;;;;;;7.43;4.80;;;;;;;13.76;100.00;100504.75;5031740;28;20026;-79
2023/08/06 07:44:58;;;;;;;6.78;5.18;;;;;;;13.81;100.00;100512.25;5030771;28;20056;-79
2023/08/06 07:47:23;;;;;;;9.65;4.95;;;;;;;13.87;100.00;100510.84;5031775;28;20037;-79
2023/08/06 07:49:49;;;;;;;9.15;5.25;;;;;;;13.85;100.00;100515.44;5024520;28;20544;-79
2023/08/06 07:52:14;;;;;;;6.50;5.07;;;;;;;13.85;100.00;100518.09;5030948;28;20040;-79
2023/08/06 07:54:39;;;;;;;7.82;5.57;;;;;;;13.90;100.00;100523.78;5043240;28;20025;-79
2023/08/06 07:57:11;;;;;;;7.95;5.68;;;;;;;13.88;100.00;100523.09;5051804;28;20112;-79
2023/08/06 07:59:36;;;;;;;11.40;6.45;;;;;;;13.95;100.00;100521.53;5035732;28;20021;-78
2023/08/06 08:02:02;;;;;;;7.03;5.85;;;;;;;13.96;100.00;100517.94;5047092;28;20040;-79
2023/08/06 08:04:27;;;;;;;11.30;5.82;;;;;;;13.98;100.00;100514.16;5036066;28;20033;-79
2023/08/06 08:06:52;;;;;;;8.45;5.30;;;;;;;13.99;100.00;100520.28;5030651;28;20481;-78
2023/08/06 08:09:18;;;;;;;10.82;5.80;;;;;;;14.02;100.00;100520.03;5031139;28;20063;-79
2023/08/06 08:11:43;;;;;;;10.13;5.65;;;;;;;13.99;100.00;100520.28;5021251;28;20036;-79
2023/08/06 08:14:09;;;;;;;7.90;5.40;;;;;;;14.03;100.00;100516.41;5019140;28;20025;-79
2023/08/06 08:16:34;;;;;;;6.45;4.63;;;;;;;14.04;100.00;100523.34;5028707;28;20470;-79
2023/08/06 08:19:00;;;;;;;9.02;5.10;;;;;;;14.05;100.00;100520.56;5029536;28;20018;-79
2023/08/06 08:21:25;;;;;;;10.38;5.15;;;;;;;14.02;100.00;100520.03;5027701;28;20033;-79
2023/08/06 08:23:51;;;;;;;8.52;4.80;;;;;;;14.03;100.00;100524.34;5026359;28;20030;-79
2023/08/06 08:26:16;;;;;;;9.38;4.40;;;;;;;14.03;100.00;100526.97;5030324;28;20495;-78
2023/08/06 08:28:41;;;;;;;7.82;4.28;;;;;;;14.00;100.00;100530.72;5033593;28;20014;-78
2023/08/06 08:31:11;;;;;;;7.53;3.88;;;;;;;13.98;100.00;100534.47;5028776;28;20104;-78
2023/08/06 08:33:37;;;;;;;7.68;3.67;;;;;;;13.97;100.00;100541.59;5029878;28;20021;-78
2023/08/06 08:36:03;;;;;;;5.43;3.25;;;;;;;13.94;100.00;100544.50;5029579;28;20037;-79
2023/08/06 08:38:28;;;;;;;4.57;2.97;;;;;;;13.90;100.00;100550.25;5024784;28;20036;-78
2023/08/06 08:40:54;;;;;;;7.57;3.35;;;;;;;13.91;100.00;100546.63;5023498;28;20048;-78
2023/08/06 08:43:23;;;;;;;5.95;3.38;;;;;;;13.88;100.00;100554.84;5030674;28;20049;-78
2023/08/06 08:45:54;;;;;;;7.97;3.60;;;;;;;13.87;100.00;100555.81;5032978;28;20160;-76
2023/08/06 08:48:21;;;;;;;5.78;3.60;;;;;;;13.86;100.00;100560.25;5028542;28;20033;-78
2023/08/06 08:50:48;;;;;;;8.10;3.47;;;;;;;13.86;100.00;100562.06;5029903;28;20045;-78
2023/08/06 08:53:15;;;;;;;9.65;3.50;;;;;;;13.84;100.00;100554.28;5030123;28;20374;-79
2023/08/06 08:55:47;;;;;;;10.88;4.13;;;;;;;13.90;100.00;100566.09;5013935;28;20026;-79
2023/08/06 08:58:13;;;;;;;9.15;4.57;;;;;;;13.91;100.00;100570.41;5023990;28;20025;-79
2023/08/06 09:00:41;;;;;;;6.95;3.95;;;;;;;13.90;100.00;100574.03;5029418;28;20033;-79
2023/08/06 09:03:10;;;;;;;9.32;4.47;;;;;;;13.92;100.00;100577.38;5029025;28;20033;-79
2023/08/06 09:05:39;;;;;;;9.45;4.70;;;;;;;13.91;100.00;100575.72;5029112;28;20087;-79
2023/08/06 09:08:04;;;;;;;8.20;4.55;;;;;;;13.92;100.00;100580.03;5029215;28;20421;-80
2023/08/06 09:10:30;;;;;;;10.40;4.38;;;;;;;13.93;100.00;100585.16;5029848;28;20083;-80
2023/08/06 09:12:58;;;;;;;9.00;5.03;;;;;;;13.96;100.00;100594.63;5020974;28;20022;-78
2023/08/06 09:15:27;;;;;;;9.13;4.80;;;;;;;13.96;100.00;100603.41;5028109;28;20031;-79
2023/08/06 09:18:05;;;;;;;8.07;4.40;;;;;;;13.96;100.00;100605.22;5028043;28;20029;-78
2023/08/06 09:20:34;;;;;;;6.50;4.10;;;;;;;13.98;100.00;100597.97;5028029;28;20516;-78
2023/08/06 09:23:10;;;;;;;8.85;4.68;;;;;;;14.04;100.00;100608.00;5027373;28;20018;-78
2023/08/06 09:25:40;;;;;;;8.38;4.53;;;;;;;14.06;100.00;100614.00;5028546;28;20025;-79
2023/08/06 09:28:11;;;;;;;10.10;4.85;;;;;;;14.07;100.00;100620.94;5044958;28;20081;-79
2023/08/06 09:30:39;;;;;;;8.82;4.55;;;;;;;14.08;100.00;100619.97;5023760;28;20034;-79
2023/08/06 09:33:14;;;;;;;9.02;5.10;;;;;;;14.12;100.00;100626.66;5018576;28;20490;-79
2023/08/06 09:35:39;;;;;;;11.00;5.22;;;;;;;14.15;100.00;100629.00;5029393;28;20489;-79
2023/08/06 09:38:11;;;;;;;12.00;5.35;;;;;;;14.20;100.00;100634.72;5030896;28;20021;-79
2023/08/06 09:40:37;;;;;;;10.98;4.95;;;;;;;14.23;100.00;100637.06;5035227;28;20033;-79
2023/08/06 09:43:03;;;;;;;8.93;4.53;;;;;;;14.19;100.00;100632.22;5029728;28;20090;-78
2023/08/06 09:45:39;;;;;;;10.38;4.63;;;;;;;14.22;100.00;100638.03;5027714;28;20132;-78
2023/08/06 09:48:06;;;;;;;10.38;5.03;;;;;;;14.26;100.00;100646.53;5017655;28;20040;-79
2023/08/06 09:50:36;;;;;;;9.43;4.25;;;;;;;14.25;100.00;100642.22;5031370;28;20025;-78
2023/08/06 09:53:01;;;;;;;8.90;4.70;;;;;;;14.25;100.00;100648.34;5044992;28;20028;-78
2023/08/06 09:55:27;;;;;;;9.38;4.90;;;;;;;14.30;100.00;100646.09;5035040;28;20490;-78
2023/08/06 09:57:53;;;;;;;7.32;4.20;;;;;;;14.31;100.00;100653.06;5030254;28;20026;-78
2023/08/06 10:00:19;;;;;;;9.43;4.47;;;;;;;14.35;100.00;100648.31;5032741;28;20026;-78
2023/08/06 10:02:46;;;;;;;8.40;5.05;;;;;;;14.42;100.00;100654.75;5030390;28;20037;-79
2023/08/06 10:05:11;;;;;;;8.90;4.30;;;;;;;14.39;100.00;100655.84;5022171;28;20040;-79
2023/08/06 10:07:40;;;;;;;12.02;4.70;;;;;;;14.41;100.00;100653.91;5033952;28;20026;-79
2023/08/06 10:10:07;;;;;;;11.77;4.57;;;;;;;14.43;100.00;100658.25;5033167;28;20049;-79
2023/08/06 10:12:44;;;;;;;7.20;3.70;;;;;;;14.40;100.00;100662.78;5030677;28;20379;-79
2023/08/06 10:15:13;;;;;;;5.10;3.60;;;;;;;14.38;100.00;100662.09;5032669;28;20017;-79
2023/08/06 10:17:40;;;;;;;6.70;3.40;;;;;;;14.35;100.00;100665.03;5033106;28;20025;-79
2023/08/06 10:20:10;;;;;;;6.72;3.25;;;;;;;14.38;100.00;100659.47;5037795;28;20029;-79
2023/08/06 10:22:35;;;;;;;6.10;3.60;;;;;;;14.38;100.00;100661.28;5029910;28;20108;-78
2023/08/06 10:25:05;;;;;;;6.57;3.42;;;;;;;14.40;100.00;100670.72;5032342;28;20243;-79
2023/08/06 10:27:34;;;;;;;9.73;3.80;;;;;;;14.47;100.00;100667.56;5032609;28;20036;-79
2023/08/06 10:30:29;;;;;;;5.43;3.50;;;;;;;14.55;100.00;100665.88;5044133;28;20374;-79
2023/08/06 10:32:57;;;;;;;9.30;3.50;;;;;;;14.54;100.00;100669.50;5031431;28;20497;-79
2023/08/06 10:35:31;;;;;;;6.63;3.70;;;;;;;14.57;100.00;100673.69;5031513;28;20446;-79
2023/08/06 10:38:14;;;;;;;5.47;3.88;;;;;;;14.62;100.00;100676.72;5013491;28;20439;-79
2023/08/06 10:40:40;;;;;;;;;;;;;;;14.74;100.00;100672.91;5028424;28;20087;-79
2023/08/06 10:43:10;;;;;;;9.77;4.30;;;;;;;14.66;100.00;100673.63;5033103;28;19912;-79
2023/08/06 10:45:50;;;;;;;9.18;4.50;;;;;;;14.74;100.00;100676.41;5031777;28;20041;-79
2023/08/06 10:48:38;;;;;;;9.50;4.60;;;;;;;14.81;100.00;100670.53;5036571;28;20029;-79
2023/08/06 10:51:10;;;;;;;8.57;4.35;;;;;;;14.85;100.00;100677.22;5018868;28;20124;-79
2023/08/06 10:53:35;;;;;;;9.17;4.47;;;;;;;14.87;100.00;100675.25;5032076;28;20032;-79
2023/08/06 10:56:01;;;;;;;6.85;3.83;;;;;;;14.92;100.00;100679.13;5016834;28;20038;-79
2023/08/06 10:58:34;;;;;;;11.32;4.65;;;;;;;14.98;100.00;100689.16;5031724;28;20519;-79
2023/08/06 11:00:59;;;;;;;6.65;4.28;;;;;;;15.01;100.00;100686.22;5036418;28;20021;-80
2023/08/06 11:03:27;;;;;;;8.68;4.75;;;;;;;15.02;100.00;100685.22;5030978;28;20456;-80
2023/08/06 11:05:52;;;;;;;9.10;4.40;;;;;;;15.04;100.00;100685.09;5034278;28;20021;-80
2023/08/06 11:08:28;;;;;;;7.28;4.20;;;;;;;15.10;100.00;100684.50;5033991;28;20041;-80
2023/08/06 11:10:54;;;;;;;10.38;4.55;;;;;;;15.10;100.00;100692.44;5040375;28;20072;-81
2023/08/06 11:13:20;;;;;;;6.70;4.63;;;;;;;15.10;100.00;100696.91;5026369;28;20041;-80
2023/08/06 11:15:46;;;;;;;8.05;4.60;;;;;;;15.09;100.00;100689.94;5031893;28;20033;-80